Terminal Aerodrome Forecast
Issued by NWS

Home | Current Version | Previous Version | Text Only | Print | Product List | Glossary On
Versions: 1 2 3 4 5 6 7 8 9 10 11 12 13 14 15 16 17 18 19 20
515
FTUS43 KAPX 302320
TAFPLN
TAF
KPLN 302320Z 3100/3124 08013G22KT 3SM -SN BR SCT015 OVC025
      TEMPO 3100/3104 1SM -SN BR BKN015
     FM310600 05014G23KT 6SM -SNRA OVC008
     FM311400 03013G22KT P6SM VCSH OVC015=

USA.gov is the U.S. government's official web portal to all federal, state and local government web resources and services.